Station: Point Avoid

  Atmospheric Gas Attenuation - ITU Rec 676-11   --------------- db/100km ---------------
Date Time Temp RH % AH g/m3 Dew Point Wind Direction Speed kph Gust kph Barometer mB Rainfall Since 9am 24GHz 47GHz 76GHz 122GHz 134GHz 241GHz
13 09:10 10.9 99 9.85 10.7 7 7 1013.1 0 22.4 28.9 46.6 122.6 119.7 412.7
13 09:00 11 100 10.01 11 7 9 1027.6 0 22.7 29.7 48.0 126.1 123.3 425.1
13 08:50 11.1 11.4 7 7 1013.1 0
13 08:40 10.7 11.1 9 11 1013.1 0
13 08:30 10.5 100 9.7 10.5 9 11 1027.5 0 22.1 29.4 46.9 123.2 119.6 412.0
13 08:20 9.6 10 7 9 1013.1 0
13 08:10 8.9 9.3 7 9 1013.1 0
13 08:00 8.5 100 8.54 8.5 7 9 1027.5 0 19.7 28.0 43.0 112.7 105.8 363.5
13 07:50 8.2 8.6 7 9 1013.1 0
13 07:40 7.8 8.2 6 7 1013.1 0
13 07:30 6.9 100 7.7 6.9 7 9 1027.2 0 18.0 27.0 40.2 105.2 95.9 328.7
13 07:20 6.9 7.1 9 9 1013.1 0
13 07:10 7.2 7.4 11 11 1013.1 0
13 07:00 7.1 100 7.8 7.1 11 13 1026.7 0 18.2 27.1 40.5 106.0 97.0 332.6
13 06:50 7.3 7.4 11 11 1013.1 0
13 06:40 7.2 7.3 11 11 1013.1 0
13 06:30 7.5 100 8.01 7.5 13 13 1026.4 0 18.6 27.3 41.2 107.9 99.5 341.3
13 06:20 7.9 8 11 11 1013.1 0
13 06:10 7.9 8 11 13 1013.1 0
13 06:00 7.8 100 8.16 7.8 9 11 1026.3 0 18.9 27.5 41.7 109.2 101.2 347.4
13 05:50 7.8 7.9 9 9 1013.1 0
13 05:40 8.1 8.2 13 13 1013.1 0
13 05:30 8.2 100 8.38 8.2 11 13 1026.3 0 19.4 27.7 42.4 111.1 103.8 356.5
13 05:20 8.7 8.8 9 11 1013.1 0
13 05:10 8.5 8.6 11 11 1013.1 0
13 04:50 7.9 8 15 15 1013.1 0
13 04:40 7.6 100 8.06 7.6 15 15 1013.1 0 18.7 26.8 40.7 106.8 99.0 339.6
13 04:30 7.6 100 8.06 7.6 13 15 1026 0 18.7 27.3 41.3 108.2 100.0 343.2
13 04:20 7.7 100 8.11 7.7 13 13 1013.1 0 18.8 26.9 40.9 107.3 99.5 341.7
13 04:10 7.8 100 8.16 7.8 15 15 1013.1 0 18.9 26.9 41.0 107.7 100.1 343.7
13 04:00 7.7 99 8.03 7.6 11 15 1025.9 0 18.6 27.3 41.1 107.8 99.5 341.2
13 03:50 7.6 99 7.98 7.4 11 11 1013.1 0 18.6 26.7 40.4 105.9 97.8 335.7
13 03:40 7.8 98 8 7.5 11 13 1013.1 0 18.6 26.7 40.4 105.9 97.9 335.8
13 03:30 8.1 98 8.16 7.8 11 13 1026 0 18.9 27.4 41.5 108.7 100.8 346.0
13 03:20 8.4 97 8.23 7.9 11 11 1013.1 0 19.1 26.9 41.0 107.7 100.3 344.5
13 03:10 8.8 98 8.53 8.5 13 13 1013.1 0 19.7 27.3 42.1 110.5 104.0 357.4
13 03:00 8.9 97 8.5 8.5 13 13 1025.9 0 19.6 27.7 42.5 111.5 104.5 359.2
13 02:50 8.9 97 8.5 8.4 13 13 1013.1 0 19.6 27.2 41.9 110.1 103.4 355.5
13 02:40 8.8 97 8.45 8.3 13 13 1013.1 0 19.5 27.1 41.8 109.6 102.9 353.5
13 02:30 8.7 97 8.39 8.3 11 13 1026 0 19.4 27.6 42.2 110.5 103.3 354.7
13 02:20 8.9 96 8.41 8.3 11 11 1013.1 0 19.4 27.0 41.5 109.0 102.2 351.1
13 02:10 8.9 95 8.32 8.1 11 11 1013.1 0 19.2 26.9 41.1 108.0 100.9 346.6
13 02:00 9.4 95 8.59 8.6 11 13 1026 0 19.8 27.7 42.6 111.8 105.1 361.3
13 01:50 9.1 95 8.43 8.3 11 11 1013.1 0 19.5 27.0 41.5 109.0 102.2 351.1
13 01:40 9.3 95 8.54 8.5 9 9 1013.1 0 19.7 27.1 41.9 109.9 103.5 355.6
13 01:30 9.5 95 8.65 8.7 9 11 1026 0 19.9 27.8 42.8 112.3 105.9 363.8
13 01:20 9.2 95 8.49 8.4 9 9 1013.1 0 19.6 27.1 41.7 109.5 102.9 353.6
13 01:10 9.5 95 8.65 8.7 11 11 1013.1 0 19.9 27.3 42.2 110.9 104.7 360.1
13 01:00 9.3 95 8.54 8.5 11 11 1025.9 0 19.7 27.6 42.5 111.4 104.6 359.3
13 00:50 9.2 95 8.49 8.4 9 9 1013.1 0 19.6 27.1 41.7 109.5 102.9 353.6
13 00:40 9.2 95 8.49 8.4 9 9 1013.1 0 19.6 27.1 41.7 109.5 102.9 353.6
13 00:30 9.4 96 8.69 8.8 7 9 1026.1 0 20.0 27.9 43.1 113.0 106.6 366.3
13 00:20 9 97 8.55 8.5 9 9 1013.1 0 19.7 27.2 42.1 110.5 104.0 357.5
13 00:10 9.4 97 8.78 8.9 9 9 1013.1 0 20.2 27.5 42.8 112.5 106.7 367.0
13 00:00 9.6 98 8.98 9.3 9 9 1026.1 0 20.6 28.3 44.2 116.0 110.4 379.8
12 23:50 9.8 98 9.09 9.5 7 7 1013.1 0 20.8 27.9 44.0 115.5 110.5 380.4
12 23:40 9.7 97 8.94 9.2 7 9 1013.1 0 20.5 27.7 43.4 113.9 108.6 373.5
12 23:30 9.4 96 8.69 8.8 9 11 1026 0 20.0 27.9 43.1 112.9 106.6 366.3
12 23:20 9.4 96 8.69 8.8 9 11 1013.1 0 20.0 27.4 42.5 111.5 105.4 362.5
12 23:10 9.5 95 8.65 8.7 7 7 1013.1 0 19.9 27.3 42.2 110.9 104.7 360.1
12 23:00 9.8 95 8.82 9 9 9 1025.9 0 20.2 28.0 43.4 113.8 107.8 370.8
12 22:50 10 93 8.74 9 9 9 1013.1 0 20.1 27.3 42.3 111.2 105.3 362.2
12 22:40 10.5 93 9.02 9.4 7 7 1013.1 0 20.7 27.6 43.3 113.7 108.5 373.5
12 22:30 11.4 92 9.44 10.1 9 11 1025.7 0 21.5 28.5 45.2 118.6 114.3 393.6
12 22:20 12.1 90 9.65 10.6 11 11 1013.1 0 21.9 28.2 45.1 118.5 115.0 396.5
12 22:10 12.4 90 9.83 10.8 13 15 1013.1 0 22.3 28.4 45.7 120.1 117.1 403.8
12 22:00 12.7 90 10.02 11.1 15 19 1025.6 0 22.7 29.1 46.9 123.2 120.5 415.6
12 21:50 13.1 89 10.16 11.3 11 13 1013.1 0 23.0 28.7 46.7 122.7 120.7 416.3
12 21:40 13.2 91 10.45 11.7 17 19 1013.1 0 23.6 29.2 47.8 125.9 124.6 430.1
12 21:30 12.8 93 10.42 11.7 13 17 1025.6 0 23.5 29.8 48.6 127.7 126.1 435.1
12 21:20 12.1 95 10.19 11.3 11 13 1013.1 0 23.1 29.1 47.4 124.7 122.7 423.3
12 21:10 12 93 9.91 10.9 7 9 1013.1 0 22.5 28.6 46.2 121.6 118.9 409.9
12 21:00 12.3 92 9.99 11 7 11 1025.7 0 22.6 29.2 47.0 123.5 120.8 416.3
12 20:50 13.1 91 10.38 11.6 7 7 1013.1 0 23.4 29.1 47.6 125.3 123.8 427.2
12 20:40 13.4 89 10.35 11.6 13 17 1013.1 0 23.4 28.9 47.3 124.4 122.9 424.1
12 20:30 13 88 9.98 11.1 15 20 1025.5 0 22.6 28.9 46.6 122.3 119.5 412.0
12 20:20 13.2 88 10.1 11.2 19 20 1013.1 0 22.8 28.6 46.3 121.9 119.7 412.8
12 20:10 13.3 88 10.17 11.3 15 17 1013.1 0 23.0 28.7 46.6 122.5 120.5 415.7
12 20:00 13.4 88 10.23 11.5 19 24 1025.2 0 23.1 29.2 47.4 124.5 122.4 422.1
12 19:50 13.4 88 10.23 11.4 19 24 1013.1 0 23.1 28.7 46.8 123.1 121.2 418.2
12 19:40 13.5 88 10.29 11.5 17 20 1013.1 0 23.2 28.8 47.0 123.6 121.9 420.6
12 19:30 13.3 89 10.28 11.5 20 24 1024.9 0 23.2 29.3 47.6 125.2 123.2 425.1
12 19:20 13.7 88 10.42 11.7 22 26 1013.1 0 23.5 29.0 47.4 124.8 123.4 425.9
12 19:10 13.6 86 10.12 11.4 20 22 1013.1 0 22.9 28.5 46.2 121.5 119.3 411.7
12 19:00 13.7 88 10.42 11.8 19 24 1024.7 0 23.5 29.4 48.0 126.1 124.5 429.7
12 18:50 13.4 88 10.23 11.4 19 22 1013.1 0 23.1 28.7 46.8 123.1 121.2 418.2
12 18:40 13.4 92 10.7 12.1 15 19 1013.1 0 24.1 29.6 48.8 128.5 127.9 441.5
12 18:30 13.1 92 10.5 11.8 15 24 1024.6 0 23.7 29.8 48.7 128.0 126.7 437.1
12 18:20 13 91 10.32 11.5 19 20 1013.1 0 23.3 29.0 47.4 124.7 123.1 424.8
12 18:10 12.5 90 9.9 10.9 9 9 1013.1 0 22.4 28.5 45.9 120.7 118.0 406.7
12 18:00 12.7 89 9.91 10.9 9 13 1024.4 0 22.4 28.9 46.4 121.8 118.9 409.8
12 17:50 12.9 87 9.81 10.8 11 13 1013.1 0 22.2 28.2 45.3 119.1 116.1 400.2
12 17:40 12.7 88 9.8 10.7 11 11 1013.1 0 22.2 28.2 45.4 119.3 116.2 400.8
12 17:30 12.8 87 9.75 10.7 11 15 1024.4 0 22.1 28.6 45.6 119.8 116.4 401.4
12 17:20 13 85 9.64 10.5 11 13 1013.1 0 21.9 27.9 44.5 117.0 113.6 391.4
12 17:10 12.9 84 9.47 10.2 13 15 1013.1 0 21.5 27.6 43.8 115.2 111.4 383.7
12 17:00 13.1 83 9.47 10.3 13 17 1024.1 0 21.5 28.0 44.3 116.2 112.1 386.1
12 16:50 12.8 84 9.41 10.1 15 17 1013.1 0 21.4 27.5 43.6 114.7 110.7 381.3
12 16:40 13 84 9.53 10.3 22 26 1013.1 0 21.6 27.7 44.0 115.8 112.0 386.1
12 16:30 13.2 84 9.65 10.6 26 32 1023.7 0 21.9 28.2 44.9 118.0 114.4 394.2

Last Refresh: 13-Jul-2020 09:23:07

Most of the information presented on this site is sourced from the Bureau of Meteorology.  Copyright in all material sourced from the Bureau of Meteorology resides with the Commonwealth of Australia.